| Back to River Map | <<< Previous Forecast Point | | | Next Forecast Point >>> | Printer Version | Graph Version |  |
|
EAST FORK CARSON RIVER - MARKLEEVILLE (CEMC1)
| Latitude: 38.71º N | Longitude: 119.76º W | Elevation: 5400 Feet | | Forecast Type: Official Location |
| Location: Alpine County in California | Bulletin Group: Eastern Sierra | River Group: Eastern Sierra |
| Issuance Time: | May 03 2026 at 9:19 AM PDT | Next Issuance: | May 04 2026 at 9:00 AM PDT
| |
| Action/Monitor: 8.0 Feet | Minor Flood: 9.0 Feet | Moderate Flood: 10.0 Feet | Major Flood: 11.0 Feet |
# Tabular Observed and Forecast Hydrograph Information
#
# Location: East Fork Carson River - Markleeville (CEMC1)
#
# File Generation Time: 05/03/2026 at 09:19 AM PDT
# Data Interval: 1 Hour
#
# Most Recent Date & Time of Maximum Observed: 05/03/2026 at 04:00 AM PDT
# Maximum Observed Stage: 3.75 Feet
# Maximum Observed Flow: 611 cfs
#
# Earliest Date & Time of Maximum Forecast: 05/04/2026 at 05:00 AM PDT
# Maximum Forecast Stage: 4.24 Feet
# Maximum Forecast Flow: 982 cfs
#
# OBSERVED
#
# Date & Time (Local) Stage (Feet) Flow (cfs) Trend Observed Status
# ---------------------------------------------------------------------------------
04/28/2026 09 AM PDT 3.51 469 Normal
04/28/2026 10 AM PDT 3.50 464 - Normal
04/28/2026 11 AM PDT 3.49 459 - Normal
04/28/2026 12 PM PDT 3.49 459 0 Normal
04/28/2026 01 PM PDT 3.49 459 0 Normal
04/28/2026 02 PM PDT 3.48 454 - Normal
04/28/2026 03 PM PDT 3.47 448 - Normal
04/28/2026 04 PM PDT 3.47 448 0 Normal
04/28/2026 05 PM PDT 3.47 448 0 Normal
04/28/2026 06 PM PDT 3.47 448 0 Normal
04/28/2026 07 PM PDT 3.47 448 0 Normal
04/28/2026 08 PM PDT 3.48 454 + Normal
04/28/2026 09 PM PDT 3.48 454 0 Normal
04/28/2026 10 PM PDT 3.48 454 0 Normal
04/28/2026 11 PM PDT 3.48 454 0 Normal
04/29/2026 12 AM PDT 3.48 454 0 Normal
04/29/2026 01 AM PDT 3.48 454 0 Normal
04/29/2026 02 AM PDT 3.48 454 0 Normal
04/29/2026 03 AM PDT 3.49 459 + Normal
04/29/2026 04 AM PDT 3.48 454 - Normal
04/29/2026 05 AM PDT 3.48 454 0 Normal
04/29/2026 06 AM PDT 3.48 454 0 Normal
04/29/2026 07 AM PDT 3.48 454 0 Normal
04/29/2026 08 AM PDT 3.47 448 - Normal
04/29/2026 09 AM PDT 3.48 454 + Normal
04/29/2026 10 AM PDT 3.47 448 - Normal
04/29/2026 11 AM PDT 3.47 448 0 Normal
04/29/2026 12 PM PDT 3.46 443 - Normal
04/29/2026 01 PM PDT 3.46 443 0 Normal
04/29/2026 02 PM PDT 3.46 443 0 Normal
04/29/2026 03 PM PDT 3.45 439 - Normal
04/29/2026 04 PM PDT 3.46 443 + Normal
04/29/2026 05 PM PDT 3.45 439 - Normal
04/29/2026 06 PM PDT 3.44 435 - Normal
04/29/2026 07 PM PDT 3.45 439 + Normal
04/29/2026 08 PM PDT 3.46 443 + Normal
04/29/2026 09 PM PDT 3.48 454 + Normal
04/29/2026 10 PM PDT 3.49 459 + Normal
04/29/2026 11 PM PDT 3.50 464 + Normal
04/30/2026 12 AM PDT 3.51 469 + Normal
04/30/2026 01 AM PDT 3.52 475 + Normal
04/30/2026 02 AM PDT 3.53 480 + Normal
04/30/2026 03 AM PDT 3.53 480 0 Normal
04/30/2026 04 AM PDT 3.53 480 0 Normal
04/30/2026 05 AM PDT 3.54 486 + Normal
04/30/2026 06 AM PDT 3.53 480 - Normal
04/30/2026 07 AM PDT 3.53 480 0 Normal
04/30/2026 08 AM PDT 3.53 480 0 Normal
04/30/2026 09 AM PDT 3.53 480 0 Normal
04/30/2026 10 AM PDT 3.53 480 0 Normal
04/30/2026 11 AM PDT 3.52 475 - Normal
04/30/2026 12 PM PDT 3.52 475 0 Normal
04/30/2026 01 PM PDT 3.51 469 - Normal
04/30/2026 02 PM PDT 3.51 469 0 Normal
04/30/2026 03 PM PDT 3.50 464 - Normal
04/30/2026 04 PM PDT 3.50 464 0 Normal
04/30/2026 05 PM PDT 3.49 459 - Normal
04/30/2026 06 PM PDT 3.49 459 0 Normal
04/30/2026 07 PM PDT 3.49 459 0 Normal
04/30/2026 08 PM PDT 3.51 469 + Normal
04/30/2026 09 PM PDT 3.54 486 + Normal
04/30/2026 10 PM PDT 3.55 491 + Normal
04/30/2026 11 PM PDT 3.57 502 + Normal
05/01/2026 12 AM PDT 3.58 508 + Normal
05/01/2026 01 AM PDT 3.59 514 + Normal
05/01/2026 02 AM PDT 3.59 514 0 Normal
05/01/2026 03 AM PDT 3.59 514 0 Normal
05/01/2026 04 AM PDT 3.59 514 0 Normal
05/01/2026 05 AM PDT 3.59 514 0 Normal
05/01/2026 06 AM PDT 3.58 508 - Normal
05/01/2026 07 AM PDT 3.58 508 0 Normal
05/01/2026 08 AM PDT 3.58 508 0 Normal
05/01/2026 09 AM PDT 3.57 502 - Normal
05/01/2026 10 AM PDT 3.57 502 0 Normal
05/01/2026 11 AM PDT 3.57 502 0 Normal
05/01/2026 12 PM PDT 3.55 491 - Normal
05/01/2026 01 PM PDT 3.54 486 - Normal
05/01/2026 02 PM PDT 3.54 486 0 Normal
05/01/2026 03 PM PDT 3.53 480 - Normal
05/01/2026 04 PM PDT 3.52 475 - Normal
05/01/2026 05 PM PDT 3.52 475 0 Normal
05/01/2026 06 PM PDT 3.52 475 0 Normal
05/01/2026 07 PM PDT 3.52 475 0 Normal
05/01/2026 08 PM PDT 3.55 491 + Normal
05/01/2026 09 PM PDT 3.57 502 + Normal
05/01/2026 10 PM PDT 3.60 519 + Normal
05/01/2026 11 PM PDT 3.61 525 + Normal
05/02/2026 12 AM PDT 3.62 531 + Normal
05/02/2026 01 AM PDT 3.66 555 + Normal
05/02/2026 02 AM PDT 3.66 555 0 Normal
05/02/2026 03 AM PDT 3.66 555 0 Normal
05/02/2026 04 AM PDT 3.69 573 + Normal
05/02/2026 05 AM PDT 3.68 567 - Normal
05/02/2026 06 AM PDT 3.68 567 0 Normal
05/02/2026 07 AM PDT 3.68 567 0 Normal
05/02/2026 08 AM PDT 3.68 567 0 Normal
05/02/2026 09 AM PDT 3.66 555 - Normal
05/02/2026 10 AM PDT 3.66 555 0 Normal
05/02/2026 11 AM PDT 3.66 555 0 Normal
05/02/2026 12 PM PDT 3.64 543 - Normal
05/02/2026 01 PM PDT 3.64 543 0 Normal
05/02/2026 02 PM PDT 3.62 531 - Normal
05/02/2026 03 PM PDT 3.61 525 - Normal
05/02/2026 04 PM PDT 3.61 525 0 Normal
05/02/2026 05 PM PDT 3.60 519 - Normal
05/02/2026 06 PM PDT 3.60 519 0 Normal
05/02/2026 07 PM PDT 3.61 525 + Normal
05/02/2026 08 PM PDT 3.64 543 + Normal
05/02/2026 09 PM PDT 3.66 555 + Normal
05/02/2026 10 PM PDT 3.69 573 + Normal
05/02/2026 11 PM PDT 3.71 585 + Normal
05/03/2026 12 AM PDT 3.73 598 + Normal
05/03/2026 01 AM PDT 3.74 604 + Normal
05/03/2026 02 AM PDT 3.74 604 0 Normal
05/03/2026 03 AM PDT 3.75 611 + Normal
05/03/2026 04 AM PDT 3.75 611 0 Normal
05/03/2026 05 AM PDT 3.74 604 - Normal
05/03/2026 06 AM PDT 3.74 604 0 Normal
05/03/2026 07 AM PDT 3.73 598 - Normal
05/03/2026 08 AM PDT 3.72 592 - Normal
05/03/2026 09 AM PDT 3.71 585 - Normal
#
# FORECAST
#
# Date & Time (Local) Stage (Feet) Flow (cfs) Trend Forecast Status
# ---------------------------------------------------------------------------------
05/03/2026 10 AM PDT 3.70 579 Normal
05/03/2026 11 AM PDT 3.68 567 - Normal
05/03/2026 12 PM PDT 3.68 567 0 Normal
05/03/2026 01 PM PDT 3.67 561 - Normal
05/03/2026 02 PM PDT 3.68 567 + Normal
05/03/2026 03 PM PDT 3.69 573 + Normal
05/03/2026 04 PM PDT 3.70 579 + Normal
05/03/2026 05 PM PDT 3.75 611 + Normal
05/03/2026 06 PM PDT 3.79 637 + Normal
05/03/2026 07 PM PDT 3.85 677 + Normal
05/03/2026 08 PM PDT 3.91 719 + Normal
05/03/2026 09 PM PDT 3.97 763 + Normal
05/03/2026 10 PM PDT 4.03 808 + Normal
05/03/2026 11 PM PDT 4.08 848 + Normal
05/04/2026 12 AM PDT 4.12 880 + Normal
05/04/2026 01 AM PDT 4.16 913 + Normal
05/04/2026 02 AM PDT 4.19 939 + Normal
05/04/2026 03 AM PDT 4.21 956 + Normal
05/04/2026 04 AM PDT 4.23 973 + Normal
05/04/2026 05 AM PDT 4.24 982 + Normal
05/04/2026 06 AM PDT 4.24 982 0 Normal
05/04/2026 07 AM PDT 4.23 973 - Normal
05/04/2026 08 AM PDT 4.21 956 - Normal
05/04/2026 09 AM PDT 4.20 947 - Normal
05/04/2026 10 AM PDT 4.18 930 - Normal
05/04/2026 11 AM PDT 4.15 905 - Normal
05/04/2026 12 PM PDT 4.13 888 - Normal
05/04/2026 01 PM PDT 4.10 864 - Normal
05/04/2026 02 PM PDT 4.07 840 - Normal
05/04/2026 03 PM PDT 4.05 824 - Normal
05/04/2026 04 PM PDT 4.02 801 - Normal
05/04/2026 05 PM PDT 4.02 801 0 Normal
05/04/2026 06 PM PDT 4.01 793 - Normal
05/04/2026 07 PM PDT 4.00 785 - Normal
05/04/2026 08 PM PDT 4.00 785 0 Normal
05/04/2026 09 PM PDT 3.99 778 - Normal
05/04/2026 10 PM PDT 3.98 770 - Normal
05/04/2026 11 PM PDT 3.98 770 0 Normal
05/05/2026 12 AM PDT 3.96 755 - Normal
05/05/2026 01 AM PDT 3.95 748 - Normal
05/05/2026 02 AM PDT 3.94 741 - Normal
05/05/2026 03 AM PDT 3.93 733 - Normal
05/05/2026 04 AM PDT 3.92 726 - Normal
05/05/2026 05 AM PDT 3.92 726 0 Normal
05/05/2026 06 AM PDT 3.91 719 - Normal
05/05/2026 07 AM PDT 3.90 712 - Normal
05/05/2026 08 AM PDT 3.89 705 - Normal
05/05/2026 09 AM PDT 3.89 705 0 Normal
05/05/2026 10 AM PDT 3.88 698 - Normal
05/05/2026 11 AM PDT 3.87 691 - Normal
05/05/2026 12 PM PDT 3.86 684 - Normal
05/05/2026 01 PM PDT 3.85 677 - Normal
05/05/2026 02 PM PDT 3.84 670 - Normal
05/05/2026 03 PM PDT 3.83 663 - Normal
05/05/2026 04 PM PDT 3.82 657 - Normal
05/05/2026 05 PM PDT 3.82 657 0 Normal
05/05/2026 06 PM PDT 3.83 663 + Normal
05/05/2026 07 PM PDT 3.83 663 0 Normal
05/05/2026 08 PM PDT 3.84 670 + Normal
05/05/2026 09 PM PDT 3.85 677 + Normal
05/05/2026 10 PM PDT 3.86 684 + Normal
05/05/2026 11 PM PDT 3.87 691 + Normal
05/06/2026 12 AM PDT 3.88 698 + Normal
05/06/2026 01 AM PDT 3.89 705 + Normal
05/06/2026 02 AM PDT 3.90 712 + Normal
05/06/2026 03 AM PDT 3.91 719 + Normal
05/06/2026 04 AM PDT 3.91 719 0 Normal
05/06/2026 05 AM PDT 3.92 726 + Normal
05/06/2026 06 AM PDT 3.92 726 0 Normal
05/06/2026 07 AM PDT 3.92 726 0 Normal
05/06/2026 08 AM PDT 3.92 726 0 Normal
05/06/2026 09 AM PDT 3.92 726 0 Normal
05/06/2026 10 AM PDT 3.92 726 0 Normal
05/06/2026 11 AM PDT 3.90 712 - Normal
05/06/2026 12 PM PDT 3.90 712 0 Normal
05/06/2026 01 PM PDT 3.88 698 - Normal
05/06/2026 02 PM PDT 3.88 698 0 Normal
05/06/2026 03 PM PDT 3.87 691 - Normal
05/06/2026 04 PM PDT 3.85 677 - Normal
05/06/2026 05 PM PDT 3.86 684 + Normal
05/06/2026 06 PM PDT 3.88 698 + Normal
05/06/2026 07 PM PDT 3.89 705 + Normal
05/06/2026 08 PM PDT 3.91 719 + Normal
05/06/2026 09 PM PDT 3.93 733 + Normal
05/06/2026 10 PM PDT 3.95 748 + Normal
05/06/2026 11 PM PDT 3.96 755 + Normal
05/07/2026 12 AM PDT 3.96 755 0 Normal
05/07/2026 01 AM PDT 3.97 763 + Normal
05/07/2026 02 AM PDT 3.98 770 + Normal
05/07/2026 03 AM PDT 3.98 770 0 Normal
05/07/2026 04 AM PDT 3.98 770 0 Normal
05/07/2026 05 AM PDT 3.98 770 0 Normal
05/07/2026 06 AM PDT 3.97 763 - Normal
05/07/2026 07 AM PDT 3.96 755 - Normal
05/07/2026 08 AM PDT 3.94 741 - Normal
05/07/2026 09 AM PDT 3.93 733 - Normal
05/07/2026 10 AM PDT 3.92 726 - Normal
05/07/2026 11 AM PDT 3.90 712 - Normal
05/07/2026 12 PM PDT 3.88 698 - Normal
05/07/2026 01 PM PDT 3.86 684 - Normal
05/07/2026 02 PM PDT 3.85 677 - Normal
05/07/2026 03 PM PDT 3.83 663 - Normal
05/07/2026 04 PM PDT 3.82 657 - Normal
05/07/2026 05 PM PDT 3.83 663 + Normal
05/07/2026 06 PM PDT 3.85 677 + Normal
05/07/2026 07 PM PDT 3.86 684 + Normal
05/07/2026 08 PM PDT 3.88 698 + Normal
05/07/2026 09 PM PDT 3.90 712 + Normal
05/07/2026 10 PM PDT 3.92 726 + Normal
05/07/2026 11 PM PDT 3.92 726 0 Normal
05/08/2026 12 AM PDT 3.93 733 + Normal
05/08/2026 01 AM PDT 3.93 733 0 Normal
05/08/2026 02 AM PDT 3.94 741 + Normal
05/08/2026 03 AM PDT 3.93 733 - Normal
05/08/2026 04 AM PDT 3.93 733 0 Normal
05/08/2026 05 AM PDT 3.93 733 0 Normal
#
# NOTE 1: Stages are rounded to the nearest hundredth (.01) of a foot.
# NOTE 2: Flows are rounded to the nearest (1) cfs.
# NOTE 3: Trends are determined using hourly change in unrounded stage and flow.
# NOTE 4: Maximum Values are determined using unrounded stage and flow.
|